Time;durP1;ratioP1;P1;durP2;ratioP2;P2;SDS_P1;SDS_P2;PMS_P1;PMS_P2;Temp;Humidity;BMP_temperature;BMP_pressure;BME280_temperature;BME280_humidity;BME280_pressure;Samples;Min_cycle;Max_cycle;Signal;HPM_P1;HPM_P2
2023/04/22 00:01:04;;;;;;;1999.90;999.90;;;10.30;99.90;;;;;;5035813;28;20438;-73
2023/04/22 00:03:31;;;;;;;1999.90;999.90;;;10.30;99.90;;;;;;5040921;28;20429;-73
2023/04/22 00:05:58;;;;;;;1999.90;999.90;;;10.30;99.90;;;;;;5040805;28;20916;-72
2023/04/22 00:08:26;;;;;;;1999.90;999.90;;;10.20;99.90;;;;;;5046400;28;20477;-73
2023/04/22 00:10:53;;;;;;;1999.90;999.90;;;10.10;99.90;;;;;;5035651;28;20435;-73
2023/04/22 00:13:19;;;;;;;1999.90;999.90;;;10.00;99.90;;;;;;5038273;28;20467;-71
2023/04/22 00:15:46;;;;;;;1999.90;999.90;;;9.90;99.90;;;;;;5034308;28;20439;-72
2023/04/22 00:18:13;;;;;;;1999.90;999.90;;;9.90;99.90;;;;;;5034976;28;21007;-73
2023/04/22 00:20:41;;;;;;;1999.90;999.90;;;9.90;99.90;;;;;;5031271;28;20431;-71
2023/04/22 00:23:08;;;;;;;1999.90;999.90;;;9.90;99.90;;;;;;5031546;28;20439;-73
2023/04/22 00:25:36;;;;;;;1999.90;999.90;;;9.90;99.90;;;;;;5038145;28;20435;-72
2023/04/22 00:28:03;;;;;;;1999.90;999.90;;;9.80;99.90;;;;;;5038834;28;20485;-72
2023/04/22 00:30:29;;;;;;;1999.90;999.90;;;9.80;99.90;;;;;;5043949;28;20436;-73
2023/04/22 00:32:56;;;;;;;1999.90;999.90;;;9.70;99.90;;;;;;5030448;28;20995;-70
2023/04/22 00:35:23;;;;;;;1999.90;999.90;;;9.70;99.90;;;;;;5035827;28;20485;-73
2023/04/22 00:37:49;;;;;;;1999.90;999.90;;;9.70;99.90;;;;;;5034594;28;20481;-72
2023/04/22 00:40:16;;;;;;;1999.90;999.90;;;9.70;99.90;;;;;;5034014;28;20430;-72
2023/04/22 00:42:44;;;;;;;1999.90;999.90;;;9.60;99.90;;;;;;5038425;28;20443;-73
2023/04/22 00:45:12;;;;;;;1999.90;999.90;;;9.60;99.90;;;;;;5030462;28;20916;-73
2023/04/22 00:47:38;;;;;;;1999.90;999.90;;;9.50;99.90;;;;;;5030733;28;20496;-72
2023/04/22 00:50:07;;;;;;;1999.90;999.90;;;9.40;99.90;;;;;;5039004;28;20437;-73
2023/04/22 00:52:33;;;;;;;1999.90;999.90;;;9.30;99.90;;;;;;5039284;28;20927;-69
2023/04/22 00:55:00;;;;;;;1999.90;999.90;;;9.20;99.90;;;;;;5038676;28;20485;-72
2023/04/22 00:57:29;;;;;;;1999.90;999.90;;;9.10;99.90;;;;;;5034298;28;20485;-72
2023/04/22 00:59:57;;;;;;;1999.90;999.90;;;9.00;99.90;;;;;;5034422;28;20427;-71
2023/04/22 01:02:24;;;;;;;1999.90;999.90;;;8.90;99.90;;;;;;5030067;28;20434;-73
2023/04/22 01:04:53;;;;;;;1999.90;999.90;;;8.90;99.90;;;;;;5044405;28;20440;-72
2023/04/22 01:07:20;;;;;;;1999.90;999.90;;;8.80;99.90;;;;;;5038196;28;20438;-72
2023/04/22 01:09:47;;;;;;;1999.90;999.90;;;8.70;99.90;;;;;;5034452;28;20526;-72
2023/04/22 01:12:14;;;;;;;1999.90;999.90;;;8.80;99.90;;;;;;5035668;28;20842;-72
2023/04/22 01:14:41;;;;;;;1999.90;999.90;;;8.80;99.90;;;;;;5029518;28;20461;-73
2023/04/22 01:17:10;;;;;;;1999.90;999.90;;;8.90;99.90;;;;;;5038128;28;20435;-72
2023/04/22 01:19:37;;;;;;;1999.90;999.90;;;9.00;99.90;;;;;;5032108;28;20470;-73
2023/04/22 01:22:06;;;;;;;1999.90;999.90;;;9.00;99.90;;;;;;5034338;28;20481;-72
2023/04/22 01:24:35;;;;;;;1999.90;999.90;;;9.00;99.90;;;;;;5040223;28;21052;-72
2023/04/22 01:27:02;;;;;;;1999.90;999.90;;;9.10;99.90;;;;;;5041948;28;20929;-72
2023/04/22 01:29:28;;;;;;;1999.90;999.90;;;9.10;99.90;;;;;;5029205;28;20435;-72
2023/04/22 01:31:55;;;;;;;1999.90;999.90;;;9.00;99.90;;;;;;5029860;28;20501;-72
2023/04/22 01:34:22;;;;;;;1999.90;999.90;;;9.10;99.90;;;;;;5029258;28;20984;-73
2023/04/22 01:36:50;;;;;;;1999.90;999.90;;;9.10;99.90;;;;;;5034256;28;20438;-73
2023/04/22 01:39:17;;;;;;;1999.90;999.90;;;9.10;99.90;;;;;;5046967;28;20428;-73
2023/04/22 01:41:46;;;;;;;1999.90;999.90;;;9.10;99.90;;;;;;5032520;28;20454;-71
2023/04/22 01:44:12;;;;;;;1999.90;999.90;;;9.20;99.90;;;;;;5029284;28;20434;-69
2023/04/22 01:46:39;;;;;;;1999.90;999.90;;;9.10;99.90;;;;;;5033960;28;20479;-70
2023/04/22 01:49:06;;;;;;;1999.90;999.90;;;9.10;99.90;;;;;;5043121;28;20439;-72
2023/04/22 01:51:33;;;;;;;1999.90;999.90;;;9.00;99.90;;;;;;5033825;28;20430;-73
2023/04/22 01:53:59;;;;;;;1999.90;999.90;;;9.00;99.90;;;;;;5028704;28;20485;-72
2023/04/22 01:56:26;;;;;;;1999.90;999.90;;;9.00;99.90;;;;;;5032285;28;20498;-72
2023/04/22 01:58:54;;;;;;;1999.90;999.90;;;8.90;99.90;;;;;;5035371;28;20853;-72
2023/04/22 02:01:21;;;;;;;1999.90;999.90;;;8.90;99.90;;;;;;5034248;28;20439;-72
2023/04/22 02:03:47;;;;;;;1999.90;999.90;;;8.80;99.90;;;;;;5028377;28;20443;-70
2023/04/22 02:06:14;;;;;;;1999.90;999.90;;;8.90;99.90;;;;;;5029453;28;20434;-72
2023/04/22 02:08:41;;;;;;;1999.90;999.90;;;8.80;99.90;;;;;;5035109;28;20497;-73
2023/04/22 02:11:07;;;;;;;1999.90;999.90;;;8.90;99.90;;;;;;5034557;28;20485;-72
2023/04/22 02:13:37;;;;;;;1999.90;999.90;;;8.80;99.90;;;;;;5042385;28;20479;-73
2023/04/22 02:16:06;;;;;;;1999.90;999.90;;;8.90;99.90;;;;;;5029593;28;20446;-73
2023/04/22 02:18:33;;;;;;;1999.90;999.90;;;8.90;99.90;;;;;;5034243;28;20464;-72
2023/04/22 02:21:00;;;;;;;1999.90;999.90;;;8.90;99.90;;;;;;5034325;28;20442;-72
2023/04/22 02:23:27;;;;;;;1999.90;999.90;;;9.00;99.90;;;;;;5030815;28;20434;-72
2023/04/22 02:25:56;;;;;;;1999.90;999.90;;;9.00;99.90;;;;;;5028206;28;20489;-72
2023/04/22 02:28:23;;;;;;;1999.90;999.90;;;9.00;99.90;;;;;;5023690;28;20434;-72
2023/04/22 02:30:49;;;;;;;1999.90;999.90;;;9.00;99.90;;;;;;5031149;28;20427;-73
2023/04/22 02:33:17;;;;;;;1999.90;999.90;;;9.10;99.90;;;;;;5033784;28;20429;-72
2023/04/22 02:35:44;;;;;;;1999.90;999.90;;;9.10;99.90;;;;;;5037305;28;20443;-71
2023/04/22 02:38:11;;;;;;;1999.90;999.90;;;9.10;99.90;;;;;;5035694;28;20431;-72
2023/04/22 02:40:37;;;;;;;1999.90;999.90;;;9.00;99.90;;;;;;5031033;28;20485;-74
2023/04/22 02:43:04;;;;;;;1999.90;999.90;;;9.00;99.90;;;;;;5037635;28;20435;-73
2023/04/22 02:45:31;;;;;;;1999.90;999.90;;;8.90;99.90;;;;;;5037096;28;20492;-73
2023/04/22 02:47:58;;;;;;;1999.90;999.90;;;8.80;99.90;;;;;;5043356;28;20437;-71
2023/04/22 02:50:26;;;;;;;1999.90;999.90;;;8.70;99.90;;;;;;5029544;28;20431;-70
2023/04/22 02:52:52;;;;;;;1999.90;999.90;;;8.70;99.90;;;;;;5029969;28;20921;-72
2023/04/22 02:55:20;;;;;;;1999.90;999.90;;;8.60;99.90;;;;;;5028826;28;20484;-72
2023/04/22 02:57:47;;;;;;;1999.90;999.90;;;8.50;99.90;;;;;;5041684;28;20441;-72
2023/04/22 03:00:14;;;;;;;1999.90;999.90;;;8.50;99.90;;;;;;5028944;28;20512;-72
2023/04/22 03:02:41;;;;;;;1999.90;999.90;;;8.50;99.90;;;;;;5031096;28;20434;-72
2023/04/22 03:05:08;;;;;;;1999.90;999.90;;;8.40;99.90;;;;;;5032432;28;20917;-72
2023/04/22 03:07:36;;;;;;;1999.90;999.90;;;8.30;99.90;;;;;;5033897;28;20516;-72
2023/04/22 03:10:04;;;;;;;1999.90;999.90;;;8.30;99.90;;;;;;5028469;28;20843;-73
2023/04/22 03:12:30;;;;;;;1999.90;999.90;;;8.20;99.90;;;;;;5034831;28;20438;-72
2023/04/22 03:14:57;;;;;;;1999.90;999.90;;;8.20;99.90;;;;;;5032579;28;20505;-71
2023/04/22 03:17:24;;;;;;;1999.90;999.90;;;8.10;99.90;;;;;;5033194;28;20439;-75
2023/04/22 03:19:51;;;;;;;1999.90;999.90;;;8.10;99.90;;;;;;5040465;28;20923;-72
2023/04/22 03:22:18;;;;;;;1999.90;999.90;;;8.10;99.90;;;;;;5024490;28;20440;-72
2023/04/22 03:24:46;;;;;;;1999.90;999.90;;;8.00;99.90;;;;;;5023690;28;20856;-74
2023/04/22 03:27:12;;;;;;;1999.90;999.90;;;7.90;99.90;;;;;;5032687;28;20872;-72
2023/04/22 03:29:39;;;;;;;1999.90;999.90;;;7.90;99.90;;;;;;5035837;28;20429;-72
2023/04/22 03:32:06;;;;;;;1999.90;999.90;;;7.90;99.90;;;;;;5033299;28;20434;-71
2023/04/22 03:34:32;;;;;;;1999.90;999.90;;;8.00;99.90;;;;;;5034823;28;20492;-72
2023/04/22 03:36:59;;;;;;;1999.90;999.90;;;8.10;99.90;;;;;;5027218;28;20439;-71
2023/04/22 03:39:26;;;;;;;1999.90;999.90;;;8.00;99.90;;;;;;5031994;28;20433;-73
2023/04/22 03:41:53;;;;;;;1999.90;999.90;;;7.90;99.90;;;;;;5031201;28;20435;-74
2023/04/22 03:44:20;;;;;;;1999.90;999.90;;;8.00;99.90;;;;;;5037466;28;20429;-74
2023/04/22 03:46:47;;;;;;;1999.90;999.90;;;7.90;99.90;;;;;;5038706;28;20449;-74
2023/04/22 03:49:14;;;;;;;1999.90;999.90;;;7.80;99.90;;;;;;5027983;28;20492;-71
2023/04/22 03:51:40;;;;;;;1999.90;999.90;;;7.90;99.90;;;;;;5031407;28;20449;-73
2023/04/22 03:54:07;;;;;;;1999.90;999.90;;;7.90;99.90;;;;;;5039150;28;20912;-72
2023/04/22 03:56:34;;;;;;;1999.90;999.90;;;7.90;99.90;;;;;;5044143;28;20433;-74
2023/04/22 03:59:02;;;;;;;1999.90;999.90;;;7.80;99.90;;;;;;5038997;28;20917;-73
2023/04/22 04:01:28;;;;;;;1999.90;999.90;;;7.80;99.90;;;;;;5029320;28;20430;-74
2023/04/22 04:03:55;;;;;;;1999.90;999.90;;;7.90;99.90;;;;;;5031058;28;20430;-73
2023/04/22 04:06:21;;;;;;;1999.90;999.90;;;8.00;99.90;;;;;;5027716;28;20860;-71
2023/04/22 04:08:48;;;;;;;1999.90;999.90;;;8.00;99.90;;;;;;5042105;28;21056;-71
2023/04/22 04:11:15;;;;;;;1999.90;999.90;;;8.00;99.90;;;;;;5028442;28;20431;-73
2023/04/22 04:13:41;;;;;;;1999.90;999.90;;;8.00;99.90;;;;;;5034509;28;20434;-71
2023/04/22 04:16:09;;;;;;;1999.90;999.90;;;8.00;99.90;;;;;;5041268;28;20439;-72
2023/04/22 04:18:36;;;;;;;1999.90;999.90;;;8.00;99.90;;;;;;5036181;28;20497;-72
2023/04/22 04:21:03;;;;;;;1999.90;999.90;;;8.00;99.90;;;;;;5030299;28;20431;-72
2023/04/22 04:23:30;;;;;;;1999.90;999.90;;;8.10;99.90;;;;;;5034214;28;20487;-72
2023/04/22 04:25:59;;;;;;;1999.90;999.90;;;8.10;99.90;;;;;;5037370;28;20991;-71
2023/04/22 04:28:28;;;;;;;1999.90;999.90;;;8.20;99.90;;;;;;5040516;28;20451;-71
2023/04/22 04:30:55;;;;;;;1999.90;999.90;;;8.20;99.90;;;;;;5038750;28;20439;-70
2023/04/22 04:33:23;;;;;;;1999.90;999.90;;;8.30;99.90;;;;;;5029428;28;20426;-71
2023/04/22 04:35:50;;;;;;;1999.90;999.90;;;8.40;99.90;;;;;;5033446;28;20435;-71
2023/04/22 04:38:16;;;;;;;1999.90;999.90;;;8.50;99.90;;;;;;5040915;28;20434;-73
2023/04/22 04:40:44;;;;;;;1999.90;999.90;;;8.40;99.90;;;;;;5044964;28;20555;-73
2023/04/22 04:43:11;;;;;;;1999.90;999.90;;;8.50;99.90;;;;;;5046148;28;20433;-73
2023/04/22 04:45:38;;;;;;;1999.90;999.90;;;8.50;99.90;;;;;;5095613;22;20439;-69
2023/04/22 04:48:06;;;;;;;1999.90;999.90;;;8.60;99.90;;;;;;5066959;28;20428;-71
2023/04/22 04:50:34;;;;;;;1999.90;999.90;;;8.60;99.90;;;;;;5070723;28;20514;-71
2023/04/22 04:53:01;;;;;;;1999.90;999.90;;;8.60;99.90;;;;;;5069519;28;20435;-68
2023/04/22 04:55:28;;;;;;;1999.90;999.90;;;8.50;99.90;;;;;;5069952;28;20436;-71
2023/04/22 04:57:54;;;;;;;1999.90;999.90;;;8.70;99.90;;;;;;5070157;28;20489;-69
2023/04/22 05:00:21;;;;;;;1999.90;999.90;;;8.80;99.90;;;;;;5070447;28;20458;-68
2023/04/22 05:02:48;;;;;;;1999.90;999.90;;;8.90;99.90;;;;;;5069353;28;20435;-70
2023/04/22 05:05:14;;;;;;;1999.90;999.90;;;9.00;99.90;;;;;;5069004;28;20487;-72
2023/04/22 05:07:42;;;;;;;1999.90;999.90;;;9.10;99.90;;;;;;5069093;28;20481;-71
2023/04/22 05:10:10;;;;;;;1999.90;999.90;;;9.40;99.90;;;;;;5070185;28;20435;-71
2023/04/22 05:12:37;;;;;;;1999.90;999.90;;;9.70;99.90;;;;;;5070294;28;20435;-71
2023/04/22 05:15:04;;;;;;;1999.90;999.90;;;10.00;99.90;;;;;;5068692;28;20430;-68
2023/04/22 05:17:31;;;;;;;1999.90;999.90;;;10.00;99.90;;;;;;5068681;28;20940;-71
2023/04/22 05:19:58;;;;;;;1999.90;999.90;;;10.20;99.90;;;;;;5070303;28;20508;-71
2023/04/22 05:22:25;;;;;;;1999.90;999.90;;;10.40;99.90;;;;;;5067059;28;20502;-68
2023/04/22 05:24:53;;;;;;;1999.90;999.90;;;10.40;99.90;;;;;;5067860;28;20431;-70
2023/04/22 05:27:19;;;;;;;1999.90;999.90;;;10.50;99.90;;;;;;5068127;28;20443;-73
2023/04/22 05:29:46;;;;;;;1999.90;999.90;;;10.50;99.90;;;;;;5070069;28;20423;-68
2023/04/22 05:32:13;;;;;;;1999.90;999.90;;;10.70;99.90;;;;;;5068675;28;20477;-71
2023/04/22 05:34:39;;;;;;;1999.90;999.90;;;10.70;99.90;;;;;;5068853;28;20436;-70
2023/04/22 05:37:07;;;;;;;1999.90;999.90;;;10.80;99.90;;;;;;5063741;28;20437;-69
2023/04/22 05:39:33;;;;;;;1999.90;999.90;;;10.90;99.90;;;;;;5069533;28;20423;-71
2023/04/22 05:42:02;;;;;;;1999.90;999.90;;;11.00;99.90;;;;;;5069850;28;20435;-71
2023/04/22 05:44:28;;;;;;;1999.90;999.90;;;11.30;99.90;;;;;;5068998;28;20488;-69
2023/04/22 05:46:55;;;;;;;1999.90;999.90;;;11.60;99.90;;;;;;5069133;28;20482;-71
2023/04/22 05:49:22;;;;;;;1999.90;999.90;;;12.00;99.90;;;;;;5069261;28;20435;-71
2023/04/22 05:51:50;;;;;;;1999.90;999.90;;;12.50;99.90;;;;;;5069280;28;21242;-68
2023/04/22 05:54:17;;;;;;;1999.90;999.90;;;12.80;99.90;;;;;;5068488;28;20435;-71
2023/04/22 05:56:44;;;;;;;1999.90;999.90;;;12.90;99.90;;;;;;5068420;28;20980;-72
2023/04/22 05:59:12;;;;;;;1999.90;999.90;;;13.10;99.90;;;;;;5069063;28;21238;-70
2023/04/22 06:01:38;;;;;;;1999.90;999.90;;;13.10;99.90;;;;;;5068771;28;20458;-69
2023/04/22 06:04:05;;;;;;;1999.90;999.90;;;13.20;99.90;;;;;;5068609;28;20473;-71
2023/04/22 06:06:32;;;;;;;1999.90;999.90;;;13.40;99.90;;;;;;5067989;28;20428;-71
2023/04/22 06:08:59;;;;;;;1999.90;999.90;;;13.40;99.90;;;;;;5069029;28;20435;-70
2023/04/22 06:11:25;;;;;;;1999.90;999.90;;;13.50;99.90;;;;;;5068026;28;20917;-70
2023/04/22 06:13:52;;;;;;;1999.90;999.90;;;13.70;99.90;;;;;;5064477;28;20503;-68
2023/04/22 06:16:21;;;;;;;1999.90;999.90;;;13.90;99.90;;;;;;5067935;28;20485;-71
2023/04/22 06:18:48;;;;;;;1999.90;999.90;;;14.00;99.90;;;;;;5068708;28;20481;-72
2023/04/22 06:21:15;;;;;;;1999.90;999.90;;;14.20;99.90;;;;;;5067977;28;20439;-71
2023/04/22 06:23:42;;;;;;;1999.90;999.90;;;14.40;99.90;;;;;;5067889;28;20466;-71
2023/04/22 06:26:09;;;;;;;1999.90;999.90;;;14.60;99.90;;;;;;5064138;28;20441;-72
2023/04/22 06:28:36;;;;;;;1999.90;999.90;;;14.90;99.90;;;;;;5067817;28;20484;-70
2023/04/22 06:31:02;;;;;;;1999.90;999.90;;;15.00;99.90;;;;;;5067149;28;20443;-72
2023/04/22 06:33:30;;;;;;;1999.90;999.90;;;15.20;99.90;;;;;;5064433;28;20431;-71
2023/04/22 06:35:57;;;;;;;1999.90;999.90;;;15.10;99.90;;;;;;5065027;28;20434;-69
2023/04/22 06:38:24;;;;;;;1999.90;999.90;;;15.10;99.90;;;;;;5067531;28;20427;-72
2023/04/22 06:40:50;;;;;;;1999.90;999.90;;;15.20;99.90;;;;;;5069204;28;20917;-72
2023/04/22 06:43:17;;;;;;;1999.90;999.90;;;15.40;99.90;;;;;;5061567;28;20435;-70
2023/04/22 06:45:44;;;;;;;1999.90;999.90;;;15.70;99.90;;;;;;5070046;28;20415;-73
2023/04/22 06:48:10;;;;;;;1999.90;999.90;;;15.90;99.90;;;;;;5068258;28;20432;-72
2023/04/22 06:50:38;;;;;;;1999.90;999.90;;;16.10;99.90;;;;;;5067706;28;20477;-70
2023/04/22 06:53:05;;;;;;;1999.90;999.90;;;16.30;99.90;;;;;;5066907;28;20497;-72
2023/04/22 06:55:32;;;;;;;1999.90;999.90;;;16.20;99.90;;;;;;5068308;28;20427;-72
2023/04/22 06:57:58;;;;;;;1999.90;999.90;;;16.10;99.90;;;;;;5068481;28;20427;-70
2023/04/22 07:00:25;;;;;;;1999.90;999.90;;;16.10;99.90;;;;;;5067580;28;20423;-70
2023/04/22 07:02:52;;;;;;;1999.90;999.90;;;16.30;99.90;;;;;;5061434;28;20432;-71
2023/04/22 07:05:18;;;;;;;1999.90;999.90;;;16.60;99.90;;;;;;5068559;28;20435;-68
2023/04/22 07:07:47;;;;;;;1999.90;999.90;;;16.90;99.90;;;;;;5068491;28;20784;-71
2023/04/22 07:10:14;;;;;;;1999.90;999.90;;;17.10;99.90;;;;;;5067323;28;20458;-71
2023/04/22 07:12:41;;;;;;;1999.90;999.90;;;17.20;99.90;;;;;;5067818;28;20435;-69
2023/04/22 07:15:08;;;;;;;1999.90;999.90;;;17.10;99.90;;;;;;5068011;28;20428;-72
2023/04/22 07:17:35;;;;;;;1999.90;999.90;;;17.00;99.90;;;;;;5066724;28;20427;-71
2023/04/22 07:20:01;;;;;;;1999.90;999.90;;;17.10;99.90;;;;;;5064596;28;21674;-69
2023/04/22 07:22:28;;;;;;;1999.90;999.90;;;17.20;99.90;;;;;;5066976;28;20488;-72
2023/04/22 07:24:56;;;;;;;1999.90;999.90;;;17.50;99.90;;;;;;5067011;28;20461;-68
2023/04/22 07:27:22;;;;;;;1999.90;999.90;;;17.60;99.90;;;;;;5066163;28;20431;-70
2023/04/22 07:29:49;;;;;;;1999.90;999.90;;;17.70;99.90;;;;;;5068620;28;20431;-73
2023/04/22 07:32:16;;;;;;;1999.90;999.90;;;17.80;99.90;;;;;;5068065;28;20472;-71
2023/04/22 07:34:42;;;;;;;1999.90;999.90;;;17.80;99.90;;;;;;5066525;28;20515;-69
2023/04/22 07:37:09;;;;;;;1999.90;999.90;;;17.90;99.90;;;;;;5066952;28;20462;-72
2023/04/22 07:39:36;;;;;;;1999.90;999.90;;;18.00;99.90;;;;;;5068061;28;20516;-71
2023/04/22 07:42:04;;;;;;;1999.90;999.90;;;18.00;99.90;;;;;;5067142;28;20848;-72
2023/04/22 07:44:31;;;;;;;1999.90;999.90;;;18.20;99.90;;;;;;5067862;28;20488;-71
2023/04/22 07:46:57;;;;;;;1999.90;999.90;;;18.40;99.90;;;;;;5067962;28;20488;-72
2023/04/22 07:49:24;;;;;;;1999.90;999.90;;;18.60;99.90;;;;;;5071710;28;20431;-71
2023/04/22 07:51:51;;;;;;;1999.90;999.90;;;18.70;99.90;;;;;;5071257;28;20850;-71
2023/04/22 07:54:17;;;;;;;1999.90;999.90;;;18.80;99.90;;;;;;5058726;28;20486;-73
2023/04/22 07:56:44;;;;;;;1999.90;999.90;;;18.90;99.90;;;;;;5068290;28;20431;-72
2023/04/22 07:59:12;;;;;;;1999.90;999.90;;;19.10;99.90;;;;;;5072123;28;20905;-72
2023/04/22 08:01:38;;;;;;;1999.90;999.90;;;19.10;99.90;;;;;;5069002;28;20488;-72
2023/04/22 08:04:06;;;;;;;1999.90;999.90;;;19.20;99.90;;;;;;5070241;28;20427;-73
2023/04/22 08:06:33;;;;;;;1999.90;999.90;;;19.30;99.90;;;;;;5071171;28;20438;-72
2023/04/22 08:08:59;;;;;;;1999.90;999.90;;;19.40;99.90;;;;;;5072287;28;20473;-72
2023/04/22 08:11:26;;;;;;;1999.90;999.90;;;19.40;99.90;;;;;;5062451;28;20896;-72
2023/04/22 08:13:52;;;;;;;1999.90;999.90;;;19.40;99.60;;;;;;5076664;28;20515;-73
2023/04/22 08:16:20;;;;;;;1999.90;999.90;;;19.40;99.80;;;;;;5089011;28;20619;-72
2023/04/22 08:18:47;;;;;;;1999.90;999.90;;;19.50;99.20;;;;;;5085662;28;20483;-72
2023/04/22 08:21:14;;;;;;;1999.90;999.90;;;19.60;98.80;;;;;;5093909;28;20413;-74
2023/04/22 08:23:40;;;;;;;1999.90;999.90;;;19.60;98.70;;;;;;5086922;28;20508;-72
2023/04/22 08:26:09;;;;;;;1999.90;999.90;;;19.70;99.20;;;;;;5090100;28;20422;-72
2023/04/22 08:28:35;;;;;;;1999.90;999.90;;;19.80;99.00;;;;;;5094138;28;20414;-71
2023/04/22 08:31:02;;;;;;;1999.90;999.90;;;19.90;99.10;;;;;;5093577;28;20418;-71
2023/04/22 08:33:30;;;;;;;1999.90;999.90;;;20.00;99.00;;;;;;5082441;28;20914;-72
2023/04/22 08:35:56;;;;;;;1999.90;999.90;;;20.10;98.40;;;;;;5085245;28;20830;-69
2023/04/22 08:38:23;;;;;;;1999.90;999.90;;;20.20;97.90;;;;;;5093622;28;20414;-70
2023/04/22 08:40:51;;;;;;;1999.90;999.90;;;20.30;97.80;;;;;;5093684;28;20884;-70
2023/04/22 08:43:18;;;;;;;1999.90;999.90;;;20.40;97.30;;;;;;5090989;28;20920;-70
2023/04/22 08:45:45;;;;;;;1999.90;999.90;;;20.60;97.20;;;;;;5085964;28;20411;-71
2023/04/22 08:48:13;;;;;;;1999.90;999.90;;;20.40;96.90;;;;;;5071199;28;20462;-72
2023/04/22 08:50:41;;;;;;;1999.90;999.90;;;20.40;97.00;;;;;;5052940;28;20482;-72
2023/04/22 08:53:08;;;;;;;1999.90;999.90;;;20.20;96.60;;;;;;5059892;28;20458;-71
2023/04/22 08:55:36;;;;;;;1999.90;999.90;;;20.70;97.10;;;;;;5057419;28;20484;-69
2023/04/22 08:58:04;;;;;;;1999.90;999.90;;;20.80;97.10;;;;;;5070655;28;20856;-71
2023/04/22 09:00:33;;;;;;;1999.90;999.90;;;21.00;96.50;;;;;;5061689;28;20903;-71
2023/04/22 09:03:02;;;;;;;1999.90;999.90;;;21.10;96.60;;;;;;5059502;28;20428;-72
2023/04/22 09:05:29;;;;;;;1999.90;999.90;;;21.20;96.30;;;;;;5083366;28;20415;-72
2023/04/22 09:07:57;;;;;;;1999.90;999.90;;;21.10;95.90;;;;;;5093406;28;20975;-70
2023/04/22 09:10:24;;;;;;;1999.90;999.90;;;21.10;96.30;;;;;;5093113;28;20428;-71
2023/04/22 09:12:51;;;;;;;1999.90;999.90;;;21.20;95.80;;;;;;5086111;28;20937;-71
2023/04/22 09:15:18;;;;;;;1999.90;999.90;;;21.30;95.50;;;;;;5081732;28;20412;-71
2023/04/22 09:17:45;;;;;;;1999.90;999.90;;;21.30;95.40;;;;;;5093016;28;20410;-71
2023/04/22 09:20:13;;;;;;;1999.90;999.90;;;21.40;95.20;;;;;;5092866;28;20861;-72
2023/04/22 09:22:41;;;;;;;1999.90;999.90;;;21.50;95.60;;;;;;5088171;28;20427;-71
2023/04/22 09:25:16;;;;;;;1999.90;999.90;;;21.60;94.80;;;;;;5080766;28;20408;-72
2023/04/22 09:27:42;;;;;;;1999.90;999.90;;;21.50;95.10;;;;;;5052633;28;20819;-69
2023/04/22 09:30:10;;;;;;;1999.90;999.90;;;21.30;95.60;;;;;;5067891;28;20478;-71
2023/04/22 09:32:37;;;;;;;1999.90;999.90;;;21.40;94.90;;;;;;5069051;28;20497;-71
2023/04/22 09:35:04;;;;;;;1999.90;999.90;;;21.00;95.50;;;;;;5071554;28;20435;-72
2023/04/22 09:37:32;;;;;;;1999.90;999.90;;;21.60;95.80;;;;;;5080600;28;20438;-72
2023/04/22 09:39:58;;;;;;;1999.90;999.90;;;22.00;95.20;;;;;;5072252;28;20448;-72
2023/04/22 09:42:26;;;;;;;1999.90;999.90;;;22.00;93.80;;;;;;5071418;28;20457;-72
2023/04/22 09:44:53;;;;;;;1999.90;999.90;;;22.20;94.80;;;;;;5080233;28;20415;-69
2023/04/22 09:47:22;;;;;;;1999.90;999.90;;;22.20;93.90;;;;;;5060817;28;20428;-71
2023/04/22 09:49:49;;;;;;;1999.90;999.90;;;22.60;95.20;;;;;;5060250;28;20524;-70
2023/04/22 09:52:23;;;;;;;1999.90;999.90;;;22.60;94.60;;;;;;5052022;28;20417;-68
2023/04/22 09:54:51;;;;;;;1999.90;999.90;;;22.70;94.00;;;;;;5080234;28;20418;-71
2023/04/22 09:57:17;;;;;;;1999.90;999.90;;;22.50;93.50;;;;;;5088740;28;20785;-71
2023/04/22 09:59:45;;;;;;;1999.90;999.90;;;22.60;93.10;;;;;;5092023;28;20406;-71
2023/04/22 10:02:12;;;;;;;1999.90;999.90;;;22.60;93.70;;;;;;5092021;28;20406;-71
2023/04/22 10:04:39;;;;;;;1999.90;999.90;;;22.60;92.10;;;;;;5080194;28;20458;-71
2023/04/22 10:07:07;;;;;;;1999.90;999.90;;;22.50;92.80;;;;;;5086473;28;21296;-71
2023/04/22 10:09:34;;;;;;;1999.90;999.90;;;22.40;92.70;;;;;;5091097;28;20471;-71
2023/04/22 10:12:02;;;;;;;1999.90;999.90;;;22.40;92.10;;;;;;5091288;28;20410;-71
2023/04/22 10:14:28;;;;;;;1999.90;999.90;;;22.40;92.40;;;;;;5081631;28;20452;-71
2023/04/22 10:17:01;;;;;;;1999.90;999.90;;;22.60;93.10;;;;;;5085120;28;20440;-71
2023/04/22 10:19:28;;;;;;;1999.90;999.90;;;22.50;92.70;;;;;;5091948;28;20471;-71
2023/04/22 10:21:57;;;;;;;1999.90;999.90;;;22.40;91.80;;;;;;5091746;28;20418;-70
2023/04/22 10:24:26;;;;;;;1999.90;999.90;;;22.50;91.20;;;;;;5082437;28;20483;-72
2023/04/22 10:26:56;;;;;;;1999.90;999.90;;;22.80;91.60;;;;;;5083877;28;20426;-73
2023/04/22 10:29:23;;;;;;;1999.90;999.90;;;23.00;89.80;;;;;;5091565;28;20456;-69
2023/04/22 10:31:57;;;;;;;1999.90;999.90;;;23.10;90.20;;;;;;5091327;28;20471;-71
2023/04/22 10:34:25;;;;;;;1999.90;999.90;;;23.40;90.70;;;;;;5075533;28;20447;-71
2023/04/22 10:36:58;;;;;;;1999.90;999.90;;;23.40;88.90;;;;;;5082869;28;20421;-70
2023/04/22 10:39:25;;;;;;;1999.90;999.90;;;23.60;89.20;;;;;;5091359;28;20442;-70
2023/04/22 10:42:03;;;;;;;1999.90;999.90;;;23.60;88.20;;;;;;5091514;28;20406;-70
2023/04/22 10:44:45;;;;;;;1999.90;999.90;;;23.60;86.80;;;;;;5082342;28;20426;-70
2023/04/22 10:49:44;;;;;;;1999.90;999.90;;;23.60;87.40;;;;;;5047833;28;20451;-72
2023/04/22 10:52:27;;;;;;;1999.90;999.90;;;23.60;89.50;;;;;;5048312;28;20425;-71
2023/04/22 10:54:59;;;;;;;1999.90;999.90;;;23.60;87.70;;;;;;5034132;28;20411;-70
2023/04/22 10:57:36;;;;;;;1999.90;999.90;;;23.70;88.20;;;;;;5040422;28;20437;-71
2023/04/22 11:00:23;;;;;;;1999.90;999.90;;;23.70;85.50;;;;;;5062280;28;20897;-70
2023/04/22 11:03:06;;;;;;;1999.90;999.90;;;23.70;84.70;;;;;;5071020;28;20412;-71
2023/04/22 11:05:34;;;;;;;1999.90;999.90;;;23.60;85.50;;;;;;5070829;28;21071;-71
2023/04/22 11:08:03;;;;;;;1999.90;999.90;;;23.70;85.30;;;;;;5054349;28;20433;-67
2023/04/22 11:10:32;;;;;;;1999.90;999.90;;;23.70;83.60;;;;;;5059983;28;20425;-71
2023/04/22 11:13:00;;;;;;;1999.90;999.90;;;23.70;82.90;;;;;;5065184;28;20467;-71
2023/04/22 11:15:30;;;;;;;1999.90;999.90;;;23.70;84.80;;;;;;5047339;28;20433;-71
2023/04/22 11:17:56;;;;;;;1999.90;999.90;;;23.50;83.10;;;;;;5046404;28;20433;-73
2023/04/22 11:20:23;;;;;;;1999.90;999.90;;;23.50;82.60;;;;;;5045676;28;20797;-72
2023/04/22 11:22:53;;;;;;;1999.90;999.90;;;23.40;82.50;;;;;;5052060;28;20445;-71
2023/04/22 11:25:21;;;;;;;1999.90;999.90;;;23.60;82.00;;;;;;5052668;28;20433;-71
2023/04/22 11:27:48;;;;;;;1999.90;999.90;;;23.30;83.60;;;;;;5050843;28;20503;-71
2023/04/22 11:30:16;;;;;;;1999.90;999.90;;;23.20;81.30;;;;;;5051810;28;20567;-72
2023/04/22 11:32:44;;;;;;;1999.90;999.90;;;23.30;83.20;;;;;;5051487;28;20479;-73
2023/04/22 11:35:13;;;;;;;1999.90;999.90;;;23.30;81.60;;;;;;5048882;28;20807;-72
2023/04/22 11:37:40;;;;;;;1999.90;999.90;;;23.30;83.50;;;;;;5049967;28;20460;-70
2023/04/22 11:40:10;;;;;;;1999.90;999.90;;;23.30;82.80;;;;;;5051897;28;20428;-71
2023/04/22 11:42:37;;;;;;;1999.90;999.90;;;23.40;81.80;;;;;;5050810;28;20542;-70
2023/04/22 11:45:05;;;;;;;1999.90;999.90;;;23.40;82.70;;;;;;5051322;28;20436;-72
2023/04/22 11:47:33;;;;;;;1999.90;999.90;;;23.60;83.90;;;;;;5050561;28;20445;-71
2023/04/22 11:50:03;;;;;;;1999.90;999.90;;;23.60;81.70;;;;;;5057037;28;20441;-71
2023/04/22 11:52:44;;;;;;;1999.90;999.90;;;23.70;81.30;;;;;;5060473;28;20435;-71
2023/04/22 11:55:12;;;;;;;1999.90;999.90;;;23.80;82.20;;;;;;5067746;28;20605;-71
2023/04/22 11:57:39;;;;;;;1999.90;999.90;;;23.90;81.60;;;;;;5059337;28;20944;-71
2023/04/22 12:00:09;;;;;;;1999.90;999.90;;;24.00;78.10;;;;;;5068355;28;20920;-71
2023/04/22 12:02:36;;;;;;;1999.90;999.90;;;23.90;79.50;;;;;;5073836;28;20422;-70
2023/04/22 12:05:03;;;;;;;1999.90;999.90;;;23.80;79.80;;;;;;5073903;28;20839;-70
2023/04/22 12:07:31;;;;;;;1999.90;999.90;;;23.70;78.40;;;;;;5057110;28;20872;-71